Time;durP1;ratioP1;P1;durP2;ratioP2;P2;SDS_P1;SDS_P2;PMS_P1;PMS_P2;Temp;Humidity;BMP_temperature;BMP_pressure;BME280_temperature;BME280_humidity;BME280_pressure;Samples;Min_cycle;Max_cycle;Signal;HPM_P1;HPM_P2
2022/03/16 00:02:22;;;;;;;10.67;5.93;;;9.90;65.30;;;;;;5029917;28;46390;-66
2022/03/16 00:04:52;;;;;;;13.60;5.70;;;9.90;65.30;;;;;;5029903;28;46717;-66
2022/03/16 00:07:19;;;;;;;13.97;6.50;;;9.90;65.30;;;;;;5035545;28;45921;-67
2022/03/16 00:09:45;;;;;;;13.70;6.23;;;9.90;65.30;;;;;;5030285;28;46383;-65
2022/03/16 00:12:12;;;;;;;18.30;5.03;;;9.90;65.30;;;;;;5027459;28;46299;-66
2022/03/16 00:14:38;;;;;;;20.00;5.70;;;9.80;65.20;;;;;;5032920;28;46438;-66
2022/03/16 00:17:04;;;;;;;14.67;6.60;;;9.80;65.80;;;;;;5035066;28;46300;-65
2022/03/16 00:19:31;;;;;;;18.73;7.50;;;9.70;66.60;;;;;;5029968;28;47343;-65
2022/03/16 00:21:57;;;;;;;16.93;6.93;;;9.60;67.00;;;;;;5029894;28;46434;-66
2022/03/16 00:24:23;;;;;;;16.17;6.70;;;9.60;67.80;;;;;;5031968;28;46272;-65
2022/03/16 00:26:49;;;;;;;23.10;6.83;;;9.60;67.20;;;;;;5031709;28;45855;-65
2022/03/16 00:29:14;;;;;;;17.97;7.33;;;9.50;67.60;;;;;;5032139;28;46335;-66
2022/03/16 00:31:40;;;;;;;14.97;7.30;;;9.40;68.70;;;;;;5034803;28;45846;-66
2022/03/16 00:34:06;;;;;;;27.30;9.30;;;9.40;69.20;;;;;;5031916;28;46639;-66
2022/03/16 00:36:31;;;;;;;22.17;8.10;;;9.30;69.40;;;;;;5032665;28;46428;-65
2022/03/16 00:38:57;;;;;;;14.40;7.73;;;9.30;69.30;;;;;;5033086;28;47004;-66
2022/03/16 00:41:23;;;;;;;16.53;8.00;;;9.30;69.80;;;;;;5030513;28;46363;-66
2022/03/16 00:43:48;;;;;;;15.40;8.00;;;9.20;70.70;;;;;;5030865;28;46551;-66
2022/03/16 00:46:14;;;;;;;14.03;7.90;;;9.20;71.00;;;;;;5034612;28;46700;-66
2022/03/16 00:48:40;;;;;;;20.53;8.87;;;9.10;72.30;;;;;;5032251;28;47407;-66
2022/03/16 00:51:06;;;;;;;16.00;8.47;;;9.10;72.10;;;;;;5029853;28;46337;-67
2022/03/16 00:53:34;;;;;;;17.00;9.17;;;9.00;72.70;;;;;;5033117;28;46285;-66
2022/03/16 00:56:02;;;;;;;26.53;9.57;;;9.10;72.50;;;;;;5030314;28;46446;-67
2022/03/16 00:58:29;;;;;;;29.47;10.43;;;9.00;72.40;;;;;;5027457;28;49039;-66
2022/03/16 01:00:55;;;;;;;16.50;8.30;;;9.00;72.30;;;;;;5029199;28;46370;-66
2022/03/16 01:03:20;;;;;;;15.30;9.27;;;9.00;72.60;;;;;;5030349;28;46392;-66
2022/03/16 01:05:46;;;;;;;15.00;9.67;;;9.00;72.50;;;;;;5031710;28;46375;-66
2022/03/16 01:08:12;;;;;;;19.70;10.20;;;9.00;72.60;;;;;;5034948;28;46331;-66
2022/03/16 01:10:39;;;;;;;17.83;9.50;;;9.00;72.70;;;;;;5028452;28;46459;-66
2022/03/16 01:13:05;;;;;;;18.30;9.00;;;9.00;73.00;;;;;;5029023;28;46570;-66
2022/03/16 01:15:30;;;;;;;19.23;9.77;;;9.00;72.90;;;;;;5031483;28;46440;-67
2022/03/16 01:17:56;;;;;;;17.73;9.33;;;9.00;72.90;;;;;;5029798;28;47179;-66
2022/03/16 01:20:21;;;;;;;19.00;10.83;;;9.00;73.00;;;;;;5034038;28;46362;-66
2022/03/16 01:22:47;;;;;;;24.87;11.33;;;9.00;73.20;;;;;;5029266;28;46401;-66
2022/03/16 01:25:13;;;;;;;23.03;10.30;;;9.00;72.90;;;;;;5030645;28;45959;-65
2022/03/16 01:27:38;;;;;;;21.90;10.20;;;9.00;73.10;;;;;;5028255;28;46375;-66
2022/03/16 01:30:05;;;;;;;19.10;10.97;;;9.00;73.00;;;;;;5029872;28;46424;-66
2022/03/16 01:32:31;;;;;;;17.50;11.13;;;9.00;72.70;;;;;;5032871;28;45847;-65
2022/03/16 01:34:56;;;;;;;22.20;11.30;;;9.10;72.50;;;;;;5030913;28;46378;-66
2022/03/16 01:37:22;;;;;;;21.13;12.20;;;9.10;72.80;;;;;;5032763;28;46427;-66
2022/03/16 01:39:48;;;;;;;27.93;12.30;;;9.00;73.20;;;;;;5030188;28;46410;-67
2022/03/16 01:42:14;;;;;;;20.57;12.60;;;9.00;73.10;;;;;;5026713;28;46376;-66
2022/03/16 01:44:50;;;;;;;27.93;13.93;;;8.90;73.70;;;;;;5028556;28;46614;-67
2022/03/16 01:47:19;;;;;;;20.47;13.00;;;8.90;73.60;;;;;;5033250;28;46406;-67
2022/03/16 01:49:46;;;;;;;23.23;14.20;;;8.90;73.70;;;;;;5035047;28;45816;-66
2022/03/16 01:52:15;;;;;;;24.03;14.03;;;8.90;74.10;;;;;;5035676;28;46790;-65
2022/03/16 01:54:41;;;;;;;24.13;14.80;;;8.90;74.10;;;;;;5030011;28;46347;-66
2022/03/16 01:57:10;;;;;;;26.70;15.10;;;8.90;74.10;;;;;;5031267;28;46173;-66
2022/03/16 01:59:37;;;;;;;28.33;16.73;;;8.80;74.70;;;;;;5030684;28;46389;-66
2022/03/16 02:02:06;;;;;;;26.83;16.10;;;8.80;75.70;;;;;;5027131;28;46398;-67
2022/03/16 02:04:32;;;;;;;26.20;15.60;;;8.80;75.90;;;;;;5024779;28;46472;-65
2022/03/16 02:06:59;;;;;;;31.00;16.30;;;8.80;76.80;;;;;;5026294;28;46442;-66
2022/03/16 02:09:25;;;;;;;30.33;18.07;;;8.80;77.00;;;;;;5026586;28;46326;-65
2022/03/16 02:11:51;;;;;;;31.10;17.00;;;8.80;77.00;;;;;;5023717;28;45791;-65
2022/03/16 02:14:20;;;;;;;30.00;17.67;;;8.80;76.90;;;;;;5032311;28;46265;-66
2022/03/16 02:16:47;;;;;;;44.07;18.70;;;8.80;76.90;;;;;;5034258;28;46406;-66
2022/03/16 02:19:13;;;;;;;32.50;18.60;;;8.80;78.20;;;;;;5031834;28;46746;-66
2022/03/16 02:21:40;;;;;;;30.73;18.50;;;8.90;77.00;;;;;;5034062;28;45785;-66
2022/03/16 02:24:07;;;;;;;35.30;17.70;;;8.90;77.00;;;;;;5031620;28;46327;-67
2022/03/16 02:26:33;;;;;;;32.43;17.00;;;8.90;77.00;;;;;;5029573;28;47209;-66
2022/03/16 02:28:59;;;;;;;33.53;19.50;;;8.90;77.00;;;;;;5034836;28;46487;-66
2022/03/16 02:31:25;;;;;;;38.73;18.53;;;8.90;77.00;;;;;;5032381;28;45814;-66
2022/03/16 02:33:51;;;;;;;34.10;18.13;;;8.90;77.00;;;;;;5032909;28;46442;-67
2022/03/16 02:36:17;;;;;;;35.00;18.13;;;8.80;77.40;;;;;;5030822;28;47334;-66
2022/03/16 02:38:43;;;;;;;38.93;19.90;;;8.80;77.30;;;;;;5030362;28;46413;-65
2022/03/16 02:41:09;;;;;;;43.77;18.50;;;8.90;77.40;;;;;;5032245;28;46362;-64
2022/03/16 02:43:35;;;;;;;36.93;20.20;;;8.80;77.20;;;;;;5036063;28;46645;-67
2022/03/16 02:46:02;;;;;;;37.07;22.00;;;8.90;77.10;;;;;;5035908;28;47304;-65
2022/03/16 02:48:28;;;;;;;45.70;22.37;;;8.90;77.00;;;;;;5030327;28;46295;-66
2022/03/16 02:50:53;;;;;;;40.37;21.47;;;8.90;77.10;;;;;;5033365;28;46394;-67
2022/03/16 02:53:19;;;;;;;40.27;19.80;;;9.00;77.10;;;;;;5035482;28;46567;-66
2022/03/16 02:55:46;;;;;;;35.13;21.40;;;8.90;77.00;;;;;;5033607;28;46434;-66
2022/03/16 02:58:12;;;;;;;34.90;19.40;;;8.90;77.00;;;;;;5028605;28;46362;-66
2022/03/16 03:00:38;;;;;;;43.77;21.00;;;8.80;77.00;;;;;;5031073;28;46275;-66
2022/03/16 03:03:03;;;;;;;38.23;21.33;;;8.90;77.10;;;;;;5032718;28;46287;-66
2022/03/16 03:05:29;;;;;;;39.73;22.07;;;8.90;77.10;;;;;;5033073;28;48171;-67
2022/03/16 03:07:55;;;;;;;39.17;23.10;;;8.80;77.30;;;;;;5031107;28;46326;-66
2022/03/16 03:10:21;;;;;;;38.57;21.67;;;8.90;77.00;;;;;;5028837;28;46361;-66
2022/03/16 03:12:46;;;;;;;46.33;23.77;;;8.90;77.00;;;;;;5028933;28;46458;-66
2022/03/16 03:15:15;;;;;;;54.00;23.80;;;8.90;77.00;;;;;;5030971;28;46421;-66
2022/03/16 03:17:42;;;;;;;48.47;23.73;;;9.00;77.10;;;;;;5030055;28;46249;-66
2022/03/16 03:20:09;;;;;;;48.63;23.53;;;9.00;77.10;;;;;;5028304;28;46489;-66
2022/03/16 03:22:34;;;;;;;43.67;23.20;;;9.00;77.10;;;;;;5028604;28;46390;-66
2022/03/16 03:25:00;;;;;;;54.97;24.50;;;9.00;77.20;;;;;;5030832;28;48193;-67
2022/03/16 03:27:26;;;;;;;39.50;23.17;;;9.00;77.10;;;;;;5035562;28;46406;-66
2022/03/16 03:29:52;;;;;;;41.50;23.60;;;9.00;77.10;;;;;;5028705;28;46481;-66
2022/03/16 03:32:18;;;;;;;46.87;23.67;;;9.10;77.00;;;;;;5029173;28;46430;-66
2022/03/16 03:34:47;;;;;;;44.93;23.00;;;9.20;76.70;;;;;;5028681;28;46343;-66
2022/03/16 03:37:17;;;;;;;51.10;24.60;;;9.20;76.70;;;;;;5034955;28;45769;-67
2022/03/16 03:39:43;;;;;;;53.60;26.73;;;9.10;76.90;;;;;;5030812;28;46442;-66
2022/03/16 03:42:09;;;;;;;55.13;30.53;;;8.90;77.00;;;;;;5032785;28;46450;-66
2022/03/16 03:44:38;;;;;;;63.07;30.07;;;8.80;77.20;;;;;;5029251;28;47937;-66
2022/03/16 03:47:08;;;;;;;63.53;32.03;;;8.70;77.60;;;;;;5030939;28;46596;-66
2022/03/16 03:49:35;;;;;;;64.27;32.13;;;8.70;77.50;;;;;;5029983;28;46415;-65
2022/03/16 03:52:01;;;;;;;70.93;31.03;;;8.60;77.80;;;;;;5031660;28;46294;-65
2022/03/16 03:54:27;;;;;;;76.50;35.47;;;8.40;78.50;;;;;;5032725;28;46221;-65
2022/03/16 03:56:53;;;;;;;76.40;34.87;;;8.50;79.70;;;;;;5033242;28;45891;-66
2022/03/16 03:59:20;;;;;;;78.63;34.60;;;8.50;77.80;;;;;;5031704;28;46219;-66
2022/03/16 04:01:45;;;;;;;83.50;32.87;;;8.60;77.00;;;;;;5032176;28;46330;-66
2022/03/16 04:04:11;;;;;;;82.90;35.50;;;8.80;77.00;;;;;;5027473;28;46451;-67
2022/03/16 04:06:37;;;;;;;71.70;33.00;;;8.70;76.90;;;;;;5030489;28;46719;-66
2022/03/16 04:09:03;;;;;;;72.87;34.70;;;8.70;76.80;;;;;;5033172;28;46410;-66
2022/03/16 04:11:28;;;;;;;91.20;33.80;;;8.70;76.80;;;;;;5032815;28;46677;-66
2022/03/16 04:13:54;;;;;;;83.77;35.17;;;8.50;77.00;;;;;;5034036;28;46307;-66
2022/03/16 04:16:20;;;;;;;90.60;37.00;;;8.40;77.90;;;;;;5033845;28;46288;-66
2022/03/16 04:18:46;;;;;;;125.97;40.37;;;8.40;78.00;;;;;;5028836;28;45862;-66
2022/03/16 04:21:11;;;;;;;103.73;34.10;;;8.30;78.50;;;;;;5030917;28;46485;-66
2022/03/16 04:23:37;;;;;;;90.27;34.47;;;8.20;79.20;;;;;;5030188;28;47122;-66
2022/03/16 04:26:02;;;;;;;97.50;36.17;;;8.00;79.60;;;;;;5028453;28;46208;-65
2022/03/16 04:28:28;;;;;;;98.70;34.27;;;8.00;80.20;;;;;;5027097;28;46402;-66
2022/03/16 04:30:54;;;;;;;97.67;34.67;;;7.90;80.60;;;;;;5029753;28;46453;-66
2022/03/16 04:33:19;;;;;;;103.20;35.67;;;7.90;80.80;;;;;;5032189;28;46322;-66
2022/03/16 04:35:45;;;;;;;100.67;36.97;;;7.80;80.60;;;;;;5032388;28;46349;-64
2022/03/16 04:38:11;;;;;;;114.47;36.00;;;7.90;80.50;;;;;;5037736;28;46318;-66
2022/03/16 04:40:36;;;;;;;121.00;37.20;;;7.90;80.50;;;;;;5035835;28;45790;-67
2022/03/16 04:43:02;;;;;;;116.27;37.47;;;7.90;80.50;;;;;;5033963;28;46371;-66
2022/03/16 04:45:28;;;;;;;193.93;39.37;;;7.90;80.30;;;;;;5030958;28;46071;-66
2022/03/16 04:47:53;;;;;;;170.63;42.73;;;7.90;80.20;;;;;;5031706;28;46474;-66
2022/03/16 04:50:19;;;;;;;172.00;42.40;;;7.90;80.30;;;;;;5027265;28;46471;-66
2022/03/16 04:52:46;;;;;;;149.73;40.27;;;7.90;80.10;;;;;;5027858;28;46366;-64
2022/03/16 04:55:12;;;;;;;124.77;41.00;;;7.90;80.10;;;;;;5033692;28;46437;-66
2022/03/16 04:57:38;;;;;;;114.90;41.40;;;8.00;80.00;;;;;;5025449;28;46386;-66
2022/03/16 05:00:04;;;;;;;120.60;39.90;;;8.10;79.40;;;;;;5026781;28;46349;-66
2022/03/16 05:02:30;;;;;;;133.87;41.03;;;8.20;79.00;;;;;;5030823;28;47243;-66
2022/03/16 05:04:56;;;;;;;130.23;42.10;;;8.10;78.90;;;;;;5034859;28;46483;-66
2022/03/16 05:07:21;;;;;;;123.13;39.23;;;8.20;78.80;;;;;;5033236;28;45898;-66
2022/03/16 05:09:47;;;;;;;136.13;41.03;;;8.20;78.80;;;;;;5034123;28;46525;-66
2022/03/16 05:12:12;;;;;;;87.70;33.83;;;8.20;78.90;;;;;;5028626;28;46492;-67
2022/03/16 05:14:38;;;;;;;84.83;32.57;;;8.20;79.10;;;;;;5034560;28;46352;-66
2022/03/16 05:17:04;;;;;;;74.40;30.23;;;8.00;79.60;;;;;;5033752;28;46446;-66
2022/03/16 05:19:30;;;;;;;64.97;31.13;;;7.90;80.10;;;;;;5030571;28;46444;-66
2022/03/16 05:21:56;;;;;;;66.90;31.60;;;7.80;80.20;;;;;;5027220;28;47935;-66
2022/03/16 05:24:23;;;;;;;60.43;29.50;;;7.80;80.30;;;;;;5029183;28;46378;-66
2022/03/16 05:26:50;;;;;;;61.20;26.80;;;7.80;80.40;;;;;;5032544;28;46510;-65
2022/03/16 05:29:15;;;;;;;64.07;27.20;;;7.70;80.50;;;;;;5028658;28;46647;-65
2022/03/16 05:31:41;;;;;;;60.50;27.77;;;7.60;80.50;;;;;;5032791;28;46307;-66
2022/03/16 05:34:07;;;;;;;62.37;28.40;;;7.70;80.50;;;;;;5027090;28;46367;-66
2022/03/16 05:36:32;;;;;;;75.63;32.23;;;7.60;80.50;;;;;;5029902;28;46413;-66
2022/03/16 05:38:58;;;;;;;72.30;30.10;;;7.50;81.00;;;;;;5028552;28;46388;-66
2022/03/16 05:41:24;;;;;;;79.90;33.07;;;7.40;81.70;;;;;;5030630;28;46078;-66
2022/03/16 05:43:50;;;;;;;82.97;33.77;;;7.30;82.30;;;;;;5029348;28;46492;-65
2022/03/16 05:46:16;;;;;;;81.87;30.97;;;7.30;82.60;;;;;;5032785;28;46409;-65
2022/03/16 05:48:41;;;;;;;85.47;34.00;;;7.20;82.50;;;;;;5032914;28;46459;-66
2022/03/16 05:51:08;;;;;;;90.33;33.53;;;7.20;82.60;;;;;;5032506;28;48583;-65
2022/03/16 05:53:34;;;;;;;83.67;34.40;;;7.20;82.90;;;;;;5032704;28;46409;-65
2022/03/16 05:55:59;;;;;;;74.67;30.77;;;7.20;82.90;;;;;;5031730;28;46399;-67
2022/03/16 05:58:25;;;;;;;65.27;32.13;;;7.10;84.60;;;;;;5034920;28;46224;-66
2022/03/16 06:00:51;;;;;;;64.87;29.57;;;6.90;83.70;;;;;;5034368;28;49062;-67
2022/03/16 06:03:16;;;;;;;71.60;31.60;;;6.90;83.70;;;;;;5036761;28;45859;-67
2022/03/16 06:05:42;;;;;;;61.53;28.00;;;6.90;83.50;;;;;;5036143;28;46495;-66
2022/03/16 06:08:07;;;;;;;53.83;27.10;;;6.90;83.30;;;;;;5036578;28;46527;-67
2022/03/16 06:10:33;;;;;;;54.73;28.60;;;6.80;83.00;;;;;;5034283;28;46374;-66
2022/03/16 06:13:01;;;;;;;64.83;29.37;;;6.80;82.90;;;;;;5037230;28;46445;-65
2022/03/16 06:15:30;;;;;;;61.53;29.10;;;6.80;82.60;;;;;;5038508;28;46293;-66
2022/03/16 06:17:57;;;;;;;57.13;29.10;;;6.80;82.30;;;;;;5038840;28;46348;-66
2022/03/16 06:20:24;;;;;;;51.60;26.23;;;6.80;82.10;;;;;;5036533;28;46369;-66
2022/03/16 06:22:49;;;;;;;45.30;25.20;;;6.90;81.70;;;;;;5037195;28;46311;-67
2022/03/16 06:25:15;;;;;;;50.87;24.37;;;6.90;81.20;;;;;;5037768;28;46406;-67
2022/03/16 06:27:41;;;;;;;49.93;25.53;;;6.90;81.10;;;;;;5038968;28;46411;-66
2022/03/16 06:30:07;;;;;;;42.73;23.93;;;6.90;81.20;;;;;;5037253;28;46385;-66
2022/03/16 06:32:33;;;;;;;43.70;24.33;;;6.90;80.80;;;;;;5037521;28;46296;-66
2022/03/16 06:34:59;;;;;;;40.40;23.90;;;7.10;80.70;;;;;;5034557;28;46466;-66
2022/03/16 06:37:24;;;;;;;39.43;23.13;;;6.90;81.50;;;;;;5034528;28;45958;-66
2022/03/16 06:39:50;;;;;;;40.23;23.43;;;6.90;80.20;;;;;;5036629;28;47296;-66
2022/03/16 06:42:16;;;;;;;39.10;22.90;;;7.10;81.10;;;;;;5030925;28;46620;-65
2022/03/16 06:44:41;;;;;;;40.83;23.00;;;7.10;79.50;;;;;;5035695;28;46443;-65
2022/03/16 06:47:07;;;;;;;42.13;23.37;;;7.10;79.10;;;;;;5037311;28;46394;-67
2022/03/16 06:49:32;;;;;;;39.90;24.53;;;7.10;78.80;;;;;;5032722;28;46469;-66
2022/03/16 06:51:58;;;;;;;40.37;23.50;;;7.20;78.70;;;;;;5032870;28;46366;-67
2022/03/16 06:54:24;;;;;;;37.23;23.53;;;7.10;78.80;;;;;;5034826;28;46565;-67
2022/03/16 06:56:49;;;;;;;42.70;22.87;;;7.10;78.80;;;;;;5036572;28;46401;-67
2022/03/16 06:59:15;;;;;;;37.33;21.87;;;7.10;78.60;;;;;;5036275;28;46438;-66
2022/03/16 07:01:40;;;;;;;37.13;21.30;;;7.10;78.30;;;;;;5042548;28;46228;-66
2022/03/16 07:04:06;;;;;;;37.43;20.73;;;7.20;78.20;;;;;;5037117;28;46423;-66
2022/03/16 07:06:32;;;;;;;34.10;21.00;;;7.10;77.70;;;;;;5035611;28;46390;-66
2022/03/16 07:08:57;;;;;;;35.63;20.63;;;7.10;78.10;;;;;;5034574;28;47140;-67
2022/03/16 07:11:23;;;;;;;31.13;19.40;;;7.10;78.10;;;;;;5029412;28;46476;-65
2022/03/16 07:16:33;;;;;;;36.90;21.20;;;7.00;78.00;;;;;;5027448;28;46366;-65
2022/03/16 07:19:00;;;;;;;35.33;21.90;;;7.10;77.80;;;;;;5026315;28;48058;-63
2022/03/16 07:21:25;;;;;;;39.73;21.20;;;7.10;77.50;;;;;;5030223;28;46399;-65
2022/03/16 07:23:51;;;;;;;42.23;23.83;;;7.10;77.40;;;;;;5035749;28;46468;-64
2022/03/16 07:26:17;;;;;;;33.73;19.33;;;7.10;77.30;;;;;;5037731;28;46612;-63
2022/03/16 07:28:42;;;;;;;34.70;20.70;;;7.10;77.30;;;;;;5032659;28;47493;-64
2022/03/16 07:31:08;;;;;;;35.30;21.23;;;7.10;77.40;;;;;;5033497;28;46597;-64
2022/03/16 07:33:35;;;;;;;40.20;20.83;;;7.20;77.60;;;;;;5036527;28;46436;-64
2022/03/16 07:36:01;;;;;;;37.67;23.50;;;7.30;76.70;;;;;;5033398;28;46723;-65
2022/03/16 07:38:26;;;;;;;35.83;21.23;;;7.30;76.40;;;;;;5029457;28;47323;-64
2022/03/16 07:40:52;;;;;;;34.63;20.70;;;7.30;76.20;;;;;;5030944;28;46378;-64
2022/03/16 07:43:17;;;;;;;33.37;19.43;;;7.40;75.90;;;;;;5027030;28;46279;-63
2022/03/16 07:45:43;;;;;;;31.97;19.80;;;7.30;75.70;;;;;;5026854;28;46327;-62
2022/03/16 07:48:09;;;;;;;36.37;20.60;;;7.30;75.70;;;;;;5030231;28;46569;-62
2022/03/16 07:50:35;;;;;;;35.50;19.70;;;7.30;75.70;;;;;;5031579;28;46362;-62
2022/03/16 07:53:00;;;;;;;31.47;19.23;;;7.30;75.70;;;;;;5033330;28;46417;-63
2022/03/16 07:55:27;;;;;;;31.80;19.37;;;7.30;75.70;;;;;;5034637;28;45902;-63
2022/03/16 07:57:55;;;;;;;34.30;19.30;;;7.30;75.60;;;;;;5030641;28;46523;-63
2022/03/16 08:00:21;;;;;;;32.47;19.80;;;7.30;75.70;;;;;;5028624;28;47007;-64
2022/03/16 08:02:47;;;;;;;30.80;18.90;;;7.20;75.60;;;;;;5035049;28;45978;-63
2022/03/16 08:05:14;;;;;;;34.80;19.27;;;7.20;75.60;;;;;;5033244;28;46552;-64
2022/03/16 08:07:40;;;;;;;28.67;18.10;;;7.20;75.60;;;;;;5027569;28;47289;-64
2022/03/16 08:10:06;;;;;;;33.53;19.17;;;7.30;75.60;;;;;;5030262;28;46428;-63
2022/03/16 08:12:32;;;;;;;32.33;19.40;;;7.30;75.60;;;;;;5034608;28;46501;-63
2022/03/16 08:14:58;;;;;;;28.80;18.33;;;7.20;76.70;;;;;;5029873;28;46376;-65
2022/03/16 08:17:24;;;;;;;33.10;18.67;;;7.30;75.70;;;;;;5030563;28;46485;-64
2022/03/16 08:19:49;;;;;;;36.87;20.27;;;7.30;75.70;;;;;;5027867;28;46397;-64
2022/03/16 08:22:32;;;;;;;32.50;18.90;;;7.30;75.70;;;;;;5028572;28;46390;-64
2022/03/16 08:25:00;;;;;;;33.27;18.67;;;7.30;75.60;;;;;;5031077;28;46503;-63
2022/03/16 08:27:27;;;;;;;37.90;19.27;;;7.40;75.70;;;;;;5027003;28;46543;-67
2022/03/16 08:29:53;;;;;;;33.37;19.83;;;7.40;75.50;;;;;;5024073;28;46553;-65
2022/03/16 08:32:20;;;;;;;36.27;20.93;;;7.50;75.20;;;;;;5028408;28;46401;-67
2022/03/16 08:34:46;;;;;;;37.33;20.33;;;7.40;75.20;;;;;;5034497;28;46416;-63
2022/03/16 08:37:12;;;;;;;34.57;20.50;;;7.40;75.20;;;;;;5032372;28;47275;-63
2022/03/16 08:39:38;;;;;;;34.30;20.93;;;7.40;75.30;;;;;;5033366;28;46652;-64
2022/03/16 08:42:06;;;;;;;39.97;22.53;;;7.40;75.20;;;;;;5030880;28;46384;-63
2022/03/16 08:44:31;;;;;;;78.13;37.63;;;7.50;75.10;;;;;;5030282;28;46386;-64
2022/03/16 08:46:58;;;;;;;82.97;37.20;;;7.50;74.70;;;;;;5029371;28;46393;-64
2022/03/16 08:49:24;;;;;;;198.00;77.57;;;7.60;74.70;;;;;;5028662;28;46283;-65
2022/03/16 08:51:49;;;;;;;151.23;64.53;;;7.60;74.40;;;;;;5027035;28;46431;-64
2022/03/16 08:54:16;;;;;;;166.13;70.57;;;7.70;74.30;;;;;;5028183;28;46469;-65
2022/03/16 08:56:45;;;;;;;70.47;34.20;;;7.70;74.00;;;;;;5031449;28;46968;-65
2022/03/16 08:59:10;;;;;;;45.73;27.10;;;7.70;73.90;;;;;;5032052;28;46410;-64
2022/03/16 09:01:37;;;;;;;41.10;23.90;;;7.70;74.00;;;;;;5032280;28;45874;-64
2022/03/16 09:04:03;;;;;;;44.63;23.20;;;7.70;74.00;;;;;;5030062;28;46639;-65
2022/03/16 09:06:29;;;;;;;41.03;23.97;;;7.80;73.80;;;;;;5028696;28;47200;-63
2022/03/16 09:08:55;;;;;;;39.50;24.27;;;7.80;74.90;;;;;;5028282;28;46384;-64
2022/03/16 09:11:20;;;;;;;40.13;22.83;;;7.80;73.90;;;;;;5031812;28;45822;-63
2022/03/16 09:13:47;;;;;;;42.50;23.40;;;7.90;73.70;;;;;;5033386;28;46421;-63
2022/03/16 09:16:14;;;;;;;43.77;22.90;;;7.90;73.50;;;;;;5031855;28;46407;-64
2022/03/16 09:18:40;;;;;;;36.70;22.47;;;7.90;73.60;;;;;;5027197;28;46406;-62
2022/03/16 09:21:06;;;;;;;45.25;27.85;;;7.80;73.70;;;;;;5023189;28;46558;-63
2022/03/16 09:23:32;;;;;;;47.07;25.37;;;7.80;73.50;;;;;;5026624;28;46611;-62
2022/03/16 09:25:59;;;;;;;47.07;24.90;;;7.90;73.90;;;;;;5028838;28;46507;-63
2022/03/16 09:28:25;;;;;;;44.77;22.93;;;8.00;73.50;;;;;;5024720;28;46391;-63
2022/03/16 09:30:51;;;;;;;41.63;22.27;;;8.20;73.20;;;;;;5028648;28;46518;-62
2022/03/16 09:33:17;;;;;;;41.77;23.77;;;8.40;72.20;;;;;;5028481;28;46751;-62
2022/03/16 09:35:47;;;;;;;42.87;22.97;;;8.50;71.90;;;;;;5031631;28;47355;-62
2022/03/16 09:38:12;;;;;;;44.97;25.00;;;8.60;71.10;;;;;;5022140;28;46753;-61
2022/03/16 09:40:38;;;;;;;41.60;23.07;;;8.70;70.70;;;;;;5026463;28;46454;-62
2022/03/16 09:43:08;;;;;;;37.90;22.80;;;9.00;70.40;;;;;;5032827;28;45854;-63
2022/03/16 09:45:46;;;;;;;34.87;21.97;;;9.10;69.70;;;;;;5033273;28;47541;-63
2022/03/16 09:48:13;;;;;;;34.13;21.20;;;9.10;69.00;;;;;;5031297;28;45929;-62
2022/03/16 09:50:41;;;;;;;35.37;20.97;;;9.10;68.60;;;;;;5030256;28;46398;-63
2022/03/16 09:53:09;;;;;;;34.67;21.03;;;9.10;68.40;;;;;;5028285;28;46447;-63
2022/03/16 09:55:35;;;;;;;30.20;20.67;;;9.10;68.20;;;;;;5029496;28;46715;-63
2022/03/16 09:58:00;;;;;;;38.77;20.87;;;9.20;68.10;;;;;;5027672;28;46792;-63
2022/03/16 10:00:26;;;;;;;31.83;21.30;;;9.50;67.80;;;;;;5025020;28;46516;-64
2022/03/16 10:02:54;;;;;;;36.67;22.93;;;9.50;66.70;;;;;;5024576;28;45946;-62
2022/03/16 10:05:21;;;;;;;31.73;19.80;;;9.40;66.50;;;;;;5027349;28;48143;-64
2022/03/16 10:07:52;;;;;;;36.93;21.13;;;9.40;66.30;;;;;;5022297;28;46430;-63
2022/03/16 10:13:14;;;;;;;34.97;21.70;;;9.40;67.60;;;;;;5035383;28;46455;-63
2022/03/16 10:15:40;;;;;;;32.67;22.00;;;9.50;66.30;;;;;;5029256;28;46381;-63
2022/03/16 10:18:06;;;;;;;36.00;20.10;;;9.70;65.70;;;;;;5032478;28;46575;-65
2022/03/16 10:20:35;;;;;;;34.17;20.27;;;10.00;64.40;;;;;;5028979;28;46369;-64
2022/03/16 10:23:04;;;;;;;31.90;18.70;;;10.10;63.90;;;;;;5027638;28;46385;-63
2022/03/16 10:25:33;;;;;;;32.40;20.43;;;10.20;63.20;;;;;;5031246;28;46730;-64
2022/03/16 10:28:12;;;;;;;31.10;20.10;;;10.10;63.30;;;;;;5031889;28;46394;-64
2022/03/16 10:30:39;;;;;;;28.63;19.33;;;10.00;63.50;;;;;;5024902;28;46476;-62
2022/03/16 10:33:05;;;;;;;34.63;20.90;;;9.90;64.70;;;;;;5030358;28;46567;-65
2022/03/16 10:35:31;;;;;;;36.43;21.70;;;9.80;65.00;;;;;;5034313;28;46374;-65
2022/03/16 10:38:10;;;;;;;29.67;18.83;;;9.80;65.20;;;;;;5028710;28;46681;-64
2022/03/16 10:40:36;;;;;;;31.07;21.20;;;9.70;65.20;;;;;;5031395;28;46412;-64
2022/03/16 10:49:10;;;;;;;31.23;19.97;;;9.90;64.10;;;;;;5030208;28;46384;-63
2022/03/16 10:51:37;;;;;;;30.73;20.23;;;10.00;63.40;;;;;;5026940;28;45818;-64
2022/03/16 10:54:04;;;;;;;35.07;21.30;;;10.20;63.10;;;;;;5032402;28;46400;-64
2022/03/16 10:56:31;;;;;;;34.30;20.37;;;10.40;62.70;;;;;;5034074;28;47763;-64
2022/03/16 10:58:58;;;;;;;30.93;20.00;;;10.70;63.40;;;;;;5036264;28;45846;-63
2022/03/16 11:01:27;;;;;;;29.50;20.50;;;10.70;61.80;;;;;;5032768;28;46461;-63
2022/03/16 11:03:58;;;;;;;31.40;21.23;;;10.90;61.10;;;;;;5032381;28;46653;-63
2022/03/16 11:06:25;;;;;;;30.43;20.00;;;11.10;60.50;;;;;;5029715;28;46559;-65
2022/03/16 11:08:51;;;;;;;35.73;20.87;;;11.20;59.90;;;;;;5030128;28;45882;-65
2022/03/16 11:14:04;;;;;;;36.23;22.57;;;11.40;59.60;;;;;;5029917;28;46562;-67
2022/03/16 11:16:31;;;;;;;31.70;20.17;;;11.40;59.60;;;;;;5031278;28;46437;-66
2022/03/16 11:19:04;;;;;;;32.20;20.60;;;11.60;59.30;;;;;;5032450;28;46322;-66
2022/03/16 11:21:57;;;;;;;35.70;21.47;;;11.80;58.20;;;;;;5029716;28;46385;-67
2022/03/16 11:24:26;;;;;;;31.83;21.63;;;11.80;58.40;;;;;;5030948;28;46446;-67
2022/03/16 11:27:16;;;;;;;33.00;21.77;;;11.70;57.70;;;;;;5034273;28;46401;-65
2022/03/16 11:30:06;;;;;;;32.80;20.80;;;11.70;57.70;;;;;;5027820;28;46375;-66
2022/03/16 11:32:38;;;;;;;33.93;20.33;;;11.80;57.80;;;;;;5028311;28;46594;-65
2022/03/16 11:35:08;;;;;;;33.60;22.53;;;11.90;58.00;;;;;;5029864;28;46629;-67
2022/03/16 11:37:39;;;;;;;28.30;19.73;;;12.00;58.00;;;;;;5028259;28;46642;-66
2022/03/16 11:40:20;;;;;;;30.77;20.47;;;12.20;57.40;;;;;;5029590;28;46554;-67
2022/03/16 11:43:04;;;;;;;29.27;18.27;;;12.40;56.80;;;;;;5029608;28;46327;-66
2022/03/16 11:45:40;;;;;;;31.13;21.40;;;12.50;56.10;;;;;;5032969;28;46553;-66
2022/03/16 11:48:31;;;;;;;32.40;19.10;;;12.60;55.60;;;;;;5031266;28;46433;-67
2022/03/16 11:51:08;;;;;;;31.30;19.40;;;12.50;55.70;;;;;;5027607;28;46391;-67
2022/03/16 11:53:46;;;;;;;30.93;18.87;;;12.50;55.90;;;;;;5030961;28;46443;-67
2022/03/16 11:56:23;;;;;;;28.47;19.30;;;12.40;55.00;;;;;;5031053;28;46410;-66
2022/03/16 11:58:53;;;;;;;29.07;19.57;;;12.40;55.50;;;;;;5027450;28;46874;-68
2022/03/16 12:01:28;;;;;;;31.20;19.50;;;12.20;55.50;;;;;;5032337;28;46314;-69
2022/03/16 12:04:22;;;;;;;28.73;18.00;;;12.20;55.70;;;;;;5025938;28;46583;-67
2022/03/16 12:07:02;;;;;;;28.47;18.13;;;12.20;55.50;;;;;;5031973;28;45966;-68
2022/03/16 12:09:33;;;;;;;26.60;17.50;;;12.40;55.10;;;;;;5032283;28;47610;-67
2022/03/16 12:15:03;;;;;;;29.50;17.10;;;12.50;55.00;;;;;;5028704;28;46470;-64
2022/03/16 12:17:29;;;;;;;24.77;16.60;;;12.60;54.30;;;;;;5030375;28;46534;-65
2022/03/16 12:20:24;;;;;;;25.07;16.30;;;12.80;55.00;;;;;;5030594;28;47243;-65
2022/03/16 12:22:52;;;;;;;27.40;16.93;;;12.50;54.80;;;;;;5023608;28;46465;-66
2022/03/16 12:25:26;;;;;;;23.50;16.37;;;12.40;55.00;;;;;;5022522;28;45787;-65
2022/03/16 12:30:51;;;;;;;26.97;15.40;;;12.20;55.20;;;;;;5032574;28;46694;-66
2022/03/16 12:33:20;;;;;;;28.13;16.60;;;12.00;55.40;;;;;;5033704;28;46328;-66
2022/03/16 12:35:51;;;;;;;22.03;14.03;;;12.00;55.80;;;;;;5033441;28;46654;-66
2022/03/16 12:38:19;;;;;;;21.97;15.30;;;12.10;55.50;;;;;;5032453;28;46495;-66
2022/03/16 12:43:31;;;;;;;22.10;15.70;;;12.00;55.90;;;;;;5028351;28;46548;-66
2022/03/16 12:46:11;;;;;;;22.87;13.93;;;12.10;56.00;;;;;;5028481;28;46308;-67
2022/03/16 12:48:38;;;;;;;17.17;12.77;;;12.00;55.50;;;;;;5028818;28;46500;-67
2022/03/16 12:51:04;;;;;;;21.40;13.80;;;11.80;55.70;;;;;;5031616;28;46713;-65
2022/03/16 12:53:34;;;;;;;17.93;13.00;;;11.80;56.00;;;;;;5025869;28;46444;-67
2022/03/16 12:55:59;;;;;;;18.37;12.27;;;11.90;56.10;;;;;;5030270;28;46484;-66
2022/03/16 12:58:27;;;;;;;18.40;13.07;;;11.90;55.80;;;;;;5030833;28;46356;-67
2022/03/16 13:00:59;;;;;;;17.37;11.97;;;11.90;55.50;;;;;;5029338;28;46359;-66